TFS1209 KMDW-KBNA
Flight info
| Callsign | TFS1209 |
|---|---|
| Flight time | 1h 5m |
| Altitude | 37000 |
| Route | CMSKY CARYN CYBIL TONES RYYMN3 |
| Aircraft | A320/M-SDE3FGHIRWY/LB1 |
Departure
| Time | 2026-05-07 22:58 |
|---|---|
| Airport | Chicago Midway International Airport (KMDW) |
Arrival
| Time | 2026-05-08 00:03 |
|---|---|
| Airport | Nashville International Airport (KBNA) |
| Time | Latitude | Longitude | Altitude | Speed | Heading |
|---|---|---|---|---|---|
| 2026-05-07 22:34 | 41.78994 | -87.74212 | 637 ft | 0 kts | 174° |
| 2026-05-07 22:48 | 41.79008 | -87.74214 | 633 ft | 3 kts | 168° |
| 2026-05-07 22:48 | 41.79037 | -87.74228 | 629 ft | 4 kts | 147° |
| 2026-05-07 22:48 | 41.79056 | -87.74251 | 635 ft | 4 kts | 119° |
| 2026-05-07 22:48 | 41.79062 | -87.74269 | 634 ft | 0 kts | 100° |
| 2026-05-07 22:51 | 41.79054 | -87.74270 | 634 ft | 2 kts | 191° |
| 2026-05-07 22:51 | 41.79039 | -87.74321 | 629 ft | 7 kts | 256° |
| 2026-05-07 22:51 | 41.79024 | -87.74375 | 634 ft | 7 kts | 237° |
| 2026-05-07 22:51 | 41.78964 | -87.74447 | 631 ft | 13 kts | 222° |
| 2026-05-07 22:52 | 41.78900 | -87.74528 | 634 ft | 12 kts | 223° |
| 2026-05-07 22:52 | 41.78841 | -87.74603 | 633 ft | 11 kts | 223° |
| 2026-05-07 22:52 | 41.78786 | -87.74673 | 630 ft | 11 kts | 223° |
| 2026-05-07 22:52 | 41.78734 | -87.74739 | 631 ft | 10 kts | 223° |
| 2026-05-07 22:53 | 41.78682 | -87.74785 | 633 ft | 8 kts | 187° |
| 2026-05-07 22:53 | 41.78631 | -87.74784 | 629 ft | 7 kts | 179° |
| 2026-05-07 22:53 | 41.78568 | -87.74729 | 629 ft | 20 kts | 132° |
| 2026-05-07 22:53 | 41.78477 | -87.74601 | 629 ft | 18 kts | 133° |
| 2026-05-07 22:54 | 41.78393 | -87.74484 | 629 ft | 17 kts | 134° |
| 2026-05-07 22:54 | 41.78316 | -87.74381 | 637 ft | 15 kts | 146° |
| 2026-05-07 22:54 | 41.78225 | -87.74351 | 629 ft | 13 kts | 160° |
| 2026-05-07 22:54 | 41.78166 | -87.74321 | 636 ft | 0 kts | 156° |
| 2026-05-07 22:55 | 41.78165 | -87.74321 | 636 ft | 1 kts | 156° |
| 2026-05-07 22:56 | 41.78083 | -87.74304 | 634 ft | 17 kts | 178° |
| 2026-05-07 22:56 | 41.77986 | -87.74315 | 636 ft | 12 kts | 212° |
| 2026-05-07 22:56 | 41.77943 | -87.74379 | 630 ft | 4 kts | 264° |
| 2026-05-07 22:56 | 41.77956 | -87.74418 | 654 ft | 1 kts | 313° |
| 2026-05-07 22:57 | 41.77958 | -87.74421 | 654 ft | 0 kts | 313° |
| 2026-05-07 22:57 | 41.77982 | -87.74456 | 620 ft | 32 kts | 313° |
| 2026-05-07 22:57 | 41.78350 | -87.74972 | 631 ft | 115 kts | 313° |
| 2026-05-07 22:57 | 41.79024 | -87.75916 | 945 ft | 150 kts | 313° |
| 2026-05-07 22:58 | 41.79766 | -87.76888 | 1815 ft | 153 kts | 312° |
| 2026-05-07 22:58 | 41.80523 | -87.77936 | 2624 ft | 163 kts | 311° |
| 2026-05-07 22:58 | 41.81361 | -87.79092 | 3162 ft | 183 kts | 311° |
| 2026-05-07 22:58 | 41.82309 | -87.80431 | 3696 ft | 210 kts | 311° |
| 2026-05-07 22:59 | 41.83338 | -87.81905 | 4356 ft | 233 kts | 310° |
| 2026-05-07 22:59 | 41.84417 | -87.83633 | 5263 ft | 246 kts | 297° |
| 2026-05-07 22:59 | 41.84829 | -87.85843 | 6395 ft | 250 kts | 269° |
| 2026-05-07 22:59 | 41.84356 | -87.88101 | 7555 ft | 257 kts | 243° |
| 2026-05-07 23:00 | 41.83099 | -87.89802 | 8694 ft | 273 kts | 216° |
| 2026-05-07 23:00 | 41.81200 | -87.90472 | 9831 ft | 294 kts | 188° |
| 2026-05-07 23:00 | 41.79091 | -87.90419 | 10540 ft | 315 kts | 184° |
| 2026-05-07 23:00 | 41.76842 | -87.90266 | 11249 ft | 330 kts | 183° |
| 2026-05-07 23:01 | 41.74553 | -87.90068 | 12191 ft | 335 kts | 183° |
| 2026-05-07 23:01 | 41.72224 | -87.89858 | 13212 ft | 338 kts | 183° |
| 2026-05-07 23:01 | 41.69864 | -87.89658 | 14146 ft | 341 kts | 184° |
| 2026-05-07 23:01 | 41.67475 | -87.89474 | 14988 ft | 346 kts | 184° |
| 2026-05-07 23:02 | 41.65056 | -87.89305 | 15796 ft | 351 kts | 184° |
| 2026-05-07 23:02 | 41.62595 | -87.89143 | 16589 ft | 356 kts | 184° |
| 2026-05-07 23:02 | 41.60109 | -87.88983 | 17399 ft | 361 kts | 184° |
| 2026-05-07 23:02 | 41.57583 | -87.88822 | 18194 ft | 366 kts | 184° |
| 2026-05-07 23:03 | 41.55020 | -87.88656 | 18881 ft | 371 kts | 185° |
| 2026-05-07 23:03 | 41.52419 | -87.88485 | 19559 ft | 376 kts | 185° |
| 2026-05-07 23:03 | 41.49793 | -87.88309 | 20245 ft | 381 kts | 185° |
| 2026-05-07 23:03 | 41.47128 | -87.88130 | 20914 ft | 386 kts | 185° |
| 2026-05-07 23:04 | 41.44426 | -87.87951 | 21552 ft | 392 kts | 186° |
| 2026-05-07 23:04 | 41.41683 | -87.87781 | 22175 ft | 396 kts | 188° |
| 2026-05-07 23:04 | 41.38947 | -87.87945 | 22789 ft | 395 kts | 193° |
| 2026-05-07 23:04 | 41.36190 | -87.88202 | 23408 ft | 400 kts | 194° |
| 2026-05-07 23:05 | 41.33394 | -87.88466 | 23927 ft | 405 kts | 194° |
| 2026-05-07 23:05 | 41.30566 | -87.88733 | 24393 ft | 411 kts | 195° |
| 2026-05-07 23:05 | 41.27703 | -87.89005 | 24890 ft | 415 kts | 195° |
| 2026-05-07 23:05 | 41.24802 | -87.89246 | 25423 ft | 422 kts | 192° |
| 2026-05-07 23:06 | 41.21841 | -87.89179 | 25964 ft | 428 kts | 189° |
| 2026-05-07 23:06 | 41.18860 | -87.89085 | 26504 ft | 430 kts | 189° |
| 2026-05-07 23:06 | 41.15879 | -87.88992 | 27037 ft | 433 kts | 190° |
| 2026-05-07 23:06 | 41.12854 | -87.88897 | 27564 ft | 436 kts | 190° |
| 2026-05-07 23:07 | 41.09825 | -87.88800 | 28044 ft | 438 kts | 190° |
| 2026-05-07 23:07 | 41.06776 | -87.88702 | 28606 ft | 439 kts | 191° |
| 2026-05-07 23:07 | 41.03712 | -87.88607 | 29146 ft | 441 kts | 191° |
| 2026-05-07 23:07 | 41.00635 | -87.88514 | 29669 ft | 443 kts | 191° |
| 2026-05-07 23:08 | 40.97547 | -87.88421 | 30150 ft | 445 kts | 191° |
| 2026-05-07 23:08 | 40.94447 | -87.88331 | 30573 ft | 447 kts | 191° |
| 2026-05-07 23:08 | 40.91325 | -87.88238 | 30984 ft | 450 kts | 191° |
| 2026-05-07 23:08 | 40.88188 | -87.88142 | 31334 ft | 451 kts | 191° |
| 2026-05-07 23:09 | 40.85051 | -87.88046 | 31809 ft | 451 kts | 191° |
| 2026-05-07 23:09 | 40.81926 | -87.87950 | 32374 ft | 448 kts | 191° |
| 2026-05-07 23:09 | 40.78809 | -87.87853 | 32942 ft | 447 kts | 191° |
| 2026-05-07 23:09 | 40.75710 | -87.87755 | 33490 ft | 445 kts | 191° |
| 2026-05-07 23:10 | 40.72616 | -87.87658 | 34029 ft | 443 kts | 191° |
| 2026-05-07 23:10 | 40.69529 | -87.87562 | 34466 ft | 443 kts | 191° |
| 2026-05-07 23:10 | 40.66454 | -87.87470 | 34854 ft | 442 kts | 191° |
| 2026-05-07 23:10 | 40.63377 | -87.87382 | 35233 ft | 442 kts | 191° |
| 2026-05-07 23:11 | 40.60302 | -87.87295 | 35607 ft | 442 kts | 191° |
| 2026-05-07 23:11 | 40.57246 | -87.87209 | 35976 ft | 442 kts | 191° |
| 2026-05-07 23:11 | 40.54147 | -87.87119 | 36339 ft | 442 kts | 191° |
| 2026-05-07 23:11 | 40.51067 | -87.87027 | 36693 ft | 442 kts | 191° |
| 2026-05-07 23:12 | 40.49029 | -87.86968 | 36895 ft | 443 kts | 191° |
| 2026-05-07 23:12 | 40.42903 | -87.86779 | 36997 ft | 436 kts | 191° |
| 2026-05-07 23:13 | 40.36872 | -87.86587 | 36991 ft | 433 kts | 191° |
| 2026-05-07 23:13 | 40.30833 | -87.86286 | 37005 ft | 442 kts | 185° |
| 2026-05-07 23:14 | 40.24721 | -87.85090 | 36996 ft | 445 kts | 184° |
| 2026-05-07 23:14 | 40.18617 | -87.83871 | 36985 ft | 443 kts | 184° |
| 2026-05-07 23:15 | 40.12530 | -87.82664 | 37002 ft | 442 kts | 184° |
| 2026-05-07 23:15 | 40.06440 | -87.81473 | 37003 ft | 442 kts | 184° |
| 2026-05-07 23:16 | 40.00360 | -87.80286 | 36977 ft | 442 kts | 185° |
| 2026-05-07 23:16 | 39.94293 | -87.79097 | 37004 ft | 441 kts | 185° |
| 2026-05-07 23:17 | 39.88213 | -87.77920 | 37029 ft | 440 kts | 185° |
| 2026-05-07 23:17 | 39.82168 | -87.76746 | 37032 ft | 440 kts | 185° |
| 2026-05-07 23:18 | 39.76140 | -87.75560 | 36995 ft | 439 kts | 186° |
| 2026-05-07 23:18 | 39.70105 | -87.74375 | 37018 ft | 438 kts | 186° |
| 2026-05-07 23:19 | 39.64085 | -87.73208 | 37031 ft | 437 kts | 186° |
| 2026-05-07 23:19 | 39.58067 | -87.72044 | 37034 ft | 436 kts | 186° |
| 2026-05-07 23:20 | 39.52052 | -87.70886 | 36991 ft | 436 kts | 187° |
| 2026-05-07 23:20 | 39.46102 | -87.69742 | 37016 ft | 435 kts | 187° |
| 2026-05-07 23:21 | 39.40085 | -87.68585 | 37021 ft | 434 kts | 187° |
| 2026-05-07 23:21 | 39.34111 | -87.67430 | 37027 ft | 433 kts | 187° |
| 2026-05-07 23:22 | 39.28191 | -87.66294 | 37005 ft | 433 kts | 187° |
| 2026-05-07 23:22 | 39.22235 | -87.65154 | 37025 ft | 432 kts | 187° |
| 2026-05-07 23:23 | 39.16243 | -87.64009 | 37028 ft | 432 kts | 187° |
| 2026-05-07 23:23 | 39.10340 | -87.62879 | 37033 ft | 432 kts | 187° |
| 2026-05-07 23:24 | 39.04414 | -87.61743 | 37012 ft | 431 kts | 187° |
| 2026-05-07 23:24 | 38.98472 | -87.60618 | 37023 ft | 431 kts | 187° |
| 2026-05-07 23:25 | 38.92548 | -87.59500 | 37028 ft | 430 kts | 187° |
| 2026-05-07 23:25 | 38.86624 | -87.58376 | 36999 ft | 430 kts | 187° |
| 2026-05-07 23:26 | 38.80708 | -87.57250 | 37015 ft | 430 kts | 187° |
| 2026-05-07 23:26 | 38.74793 | -87.56127 | 37029 ft | 430 kts | 187° |
| 2026-05-07 23:27 | 38.65910 | -87.54458 | 37046 ft | 430 kts | 187° |
| 2026-05-07 23:27 | 38.59999 | -87.53345 | 37034 ft | 429 kts | 187° |
| 2026-05-07 23:28 | 38.54086 | -87.52234 | 37054 ft | 430 kts | 187° |
| 2026-05-07 23:28 | 38.48198 | -87.51117 | 37061 ft | 430 kts | 187° |
| 2026-05-07 23:29 | 38.42253 | -87.49997 | 37063 ft | 429 kts | 187° |
| 2026-05-07 23:29 | 38.36349 | -87.48892 | 37061 ft | 428 kts | 188° |
| 2026-05-07 23:30 | 38.30460 | -87.47799 | 37065 ft | 428 kts | 188° |
| 2026-05-07 23:30 | 38.24586 | -87.46711 | 37070 ft | 428 kts | 188° |
| 2026-05-07 23:31 | 38.18690 | -87.45614 | 37071 ft | 428 kts | 188° |
| 2026-05-07 23:31 | 38.12796 | -87.44515 | 37037 ft | 428 kts | 188° |
| 2026-05-07 23:32 | 38.06900 | -87.43419 | 36968 ft | 433 kts | 188° |
| 2026-05-07 23:32 | 38.03889 | -87.42881 | 36707 ft | 440 kts | 188° |
| 2026-05-07 23:32 | 38.00860 | -87.42284 | 36257 ft | 445 kts | 184° |
| 2026-05-07 23:33 | 37.97834 | -87.41156 | 35695 ft | 462 kts | 173° |
| 2026-05-07 23:33 | 37.94856 | -87.39555 | 35094 ft | 465 kts | 172° |
| 2026-05-07 23:33 | 37.91886 | -87.37935 | 34435 ft | 464 kts | 172° |
| 2026-05-07 23:33 | 37.88929 | -87.36326 | 33845 ft | 462 kts | 172° |
| 2026-05-07 23:34 | 37.85974 | -87.34727 | 33196 ft | 460 kts | 172° |
| 2026-05-07 23:34 | 37.83043 | -87.33145 | 32577 ft | 455 kts | 172° |
| 2026-05-07 23:34 | 37.80159 | -87.31587 | 31988 ft | 448 kts | 171° |
| 2026-05-07 23:34 | 37.77308 | -87.30045 | 31399 ft | 440 kts | 171° |
| 2026-05-07 23:35 | 37.74513 | -87.28536 | 30835 ft | 433 kts | 171° |
| 2026-05-07 23:35 | 37.71768 | -87.27061 | 30304 ft | 426 kts | 171° |
| 2026-05-07 23:35 | 37.69056 | -87.25608 | 29717 ft | 420 kts | 170° |
| 2026-05-07 23:35 | 37.66400 | -87.24185 | 29218 ft | 409 kts | 171° |
| 2026-05-07 23:36 | 37.63823 | -87.22805 | 28750 ft | 401 kts | 171° |
| 2026-05-07 23:36 | 37.61268 | -87.21437 | 28285 ft | 393 kts | 171° |
| 2026-05-07 23:36 | 37.58774 | -87.20105 | 27815 ft | 386 kts | 171° |
| 2026-05-07 23:36 | 37.56307 | -87.18798 | 27354 ft | 383 kts | 171° |
| 2026-05-07 23:37 | 37.53854 | -87.17504 | 26891 ft | 381 kts | 171° |
| 2026-05-07 23:37 | 37.51422 | -87.16219 | 26415 ft | 379 kts | 171° |
| 2026-05-07 23:37 | 37.48990 | -87.14934 | 25935 ft | 379 kts | 170° |
| 2026-05-07 23:37 | 37.46556 | -87.13646 | 25425 ft | 379 kts | 170° |
| 2026-05-07 23:38 | 37.44122 | -87.12354 | 24909 ft | 380 kts | 169° |
| 2026-05-07 23:38 | 37.41682 | -87.11060 | 24391 ft | 380 kts | 169° |
| 2026-05-07 23:38 | 37.39238 | -87.09764 | 23872 ft | 382 kts | 169° |
| 2026-05-07 23:38 | 37.36776 | -87.08605 | 23294 ft | 373 kts | 176° |
| 2026-05-07 23:39 | 37.34281 | -87.08013 | 22868 ft | 356 kts | 188° |
| 2026-05-07 23:39 | 37.31835 | -87.07983 | 22772 ft | 350 kts | 195° |
| 2026-05-07 23:39 | 37.29394 | -87.08089 | 22602 ft | 351 kts | 194° |
| 2026-05-07 23:39 | 37.26950 | -87.08186 | 22419 ft | 351 kts | 194° |
| 2026-05-07 23:40 | 37.24510 | -87.08275 | 22238 ft | 351 kts | 194° |
| 2026-05-07 23:40 | 37.22073 | -87.08360 | 22055 ft | 350 kts | 194° |
| 2026-05-07 23:40 | 37.19642 | -87.08444 | 21844 ft | 349 kts | 193° |
| 2026-05-07 23:40 | 37.17217 | -87.08531 | 21693 ft | 349 kts | 193° |
| 2026-05-07 23:41 | 37.14826 | -87.08616 | 21518 ft | 348 kts | 193° |
| 2026-05-07 23:41 | 37.12411 | -87.08701 | 21339 ft | 347 kts | 193° |
| 2026-05-07 23:41 | 37.09999 | -87.08785 | 21162 ft | 347 kts | 193° |
| 2026-05-07 23:41 | 37.07588 | -87.08868 | 20979 ft | 346 kts | 193° |
| 2026-05-07 23:42 | 37.05185 | -87.08952 | 20808 ft | 345 kts | 193° |
| 2026-05-07 23:42 | 37.02787 | -87.09039 | 20635 ft | 344 kts | 193° |
| 2026-05-07 23:42 | 37.00361 | -87.09132 | 20442 ft | 344 kts | 193° |
| 2026-05-07 23:42 | 36.98006 | -87.09226 | 20267 ft | 343 kts | 193° |
| 2026-05-07 23:43 | 36.95587 | -87.09318 | 20056 ft | 343 kts | 193° |
| 2026-05-07 23:43 | 36.93212 | -87.09410 | 19906 ft | 342 kts | 192° |
| 2026-05-07 23:43 | 36.90867 | -87.09500 | 19739 ft | 341 kts | 192° |
| 2026-05-07 23:43 | 36.88467 | -87.09589 | 19562 ft | 341 kts | 192° |
| 2026-05-07 23:44 | 36.86094 | -87.09675 | 19386 ft | 340 kts | 192° |
| 2026-05-07 23:44 | 36.83766 | -87.09739 | 19212 ft | 342 kts | 188° |
| 2026-05-07 23:44 | 36.81361 | -87.09321 | 19029 ft | 356 kts | 175° |
| 2026-05-07 23:44 | 36.79014 | -87.08197 | 18618 ft | 367 kts | 161° |
| 2026-05-07 23:45 | 36.76750 | -87.06792 | 18215 ft | 365 kts | 161° |
| 2026-05-07 23:45 | 36.74474 | -87.05376 | 17748 ft | 364 kts | 161° |
| 2026-05-07 23:45 | 36.72222 | -87.03978 | 17371 ft | 361 kts | 161° |
| 2026-05-07 23:45 | 36.70006 | -87.02612 | 16982 ft | 358 kts | 161° |
| 2026-05-07 23:46 | 36.67784 | -87.01249 | 16619 ft | 354 kts | 161° |
| 2026-05-07 23:46 | 36.65578 | -86.99908 | 16242 ft | 352 kts | 161° |
| 2026-05-07 23:46 | 36.63384 | -86.98574 | 15886 ft | 349 kts | 161° |
| 2026-05-07 23:46 | 36.61211 | -86.97246 | 15648 ft | 347 kts | 161° |
| 2026-05-07 23:47 | 36.59053 | -86.95930 | 15407 ft | 345 kts | 161° |
| 2026-05-07 23:47 | 36.56901 | -86.94617 | 15160 ft | 343 kts | 161° |
| 2026-05-07 23:47 | 36.54731 | -86.93296 | 14915 ft | 342 kts | 161° |
| 2026-05-07 23:47 | 36.52597 | -86.92003 | 14683 ft | 340 kts | 161° |
| 2026-05-07 23:48 | 36.50472 | -86.90713 | 14442 ft | 339 kts | 161° |
| 2026-05-07 23:48 | 36.48388 | -86.89443 | 14207 ft | 338 kts | 161° |
| 2026-05-07 23:48 | 36.46285 | -86.88165 | 13974 ft | 333 kts | 161° |
| 2026-05-07 23:48 | 36.44182 | -86.86889 | 13597 ft | 332 kts | 161° |
| 2026-05-07 23:49 | 36.42136 | -86.85647 | 13197 ft | 331 kts | 161° |
| 2026-05-07 23:49 | 36.40073 | -86.84395 | 12809 ft | 330 kts | 160° |
| 2026-05-07 23:49 | 36.38014 | -86.83145 | 12412 ft | 329 kts | 160° |
| 2026-05-07 23:49 | 36.35963 | -86.81902 | 12008 ft | 328 kts | 160° |
| 2026-05-07 23:50 | 36.33913 | -86.80661 | 11612 ft | 327 kts | 159° |
| 2026-05-07 23:50 | 36.31874 | -86.79426 | 11277 ft | 323 kts | 159° |
| 2026-05-07 23:50 | 36.29859 | -86.78205 | 10871 ft | 322 kts | 159° |
| 2026-05-07 23:50 | 36.27874 | -86.77008 | 10683 ft | 313 kts | 158° |
| 2026-05-07 23:51 | 36.25894 | -86.75909 | 10567 ft | 299 kts | 167° |
| 2026-05-07 23:51 | 36.23942 | -86.75452 | 10400 ft | 283 kts | 183° |
| 2026-05-07 23:51 | 36.22056 | -86.75613 | 10105 ft | 274 kts | 197° |
| 2026-05-07 23:51 | 36.20228 | -86.76301 | 9782 ft | 268 kts | 204° |
| 2026-05-07 23:52 | 36.19068 | -86.76764 | 9691 ft | 261 kts | 203° |
| 2026-05-07 23:52 | 36.16799 | -86.77606 | 9350 ft | 254 kts | 201° |
| 2026-05-07 23:52 | 36.15641 | -86.78022 | 9047 ft | 257 kts | 201° |
| 2026-05-07 23:52 | 36.13958 | -86.78611 | 8921 ft | 247 kts | 201° |
| 2026-05-07 23:53 | 36.12334 | -86.79172 | 8736 ft | 241 kts | 201° |
| 2026-05-07 23:53 | 36.10723 | -86.79732 | 8444 ft | 239 kts | 200° |
| 2026-05-07 23:53 | 36.09125 | -86.80290 | 8156 ft | 239 kts | 200° |
| 2026-05-07 23:53 | 36.07526 | -86.80848 | 7874 ft | 238 kts | 200° |
| 2026-05-07 23:54 | 36.05937 | -86.81403 | 7599 ft | 237 kts | 200° |
| 2026-05-07 23:54 | 36.04362 | -86.81956 | 7349 ft | 235 kts | 199° |
| 2026-05-07 23:54 | 36.02788 | -86.82508 | 7058 ft | 235 kts | 199° |
| 2026-05-07 23:54 | 36.01219 | -86.83057 | 6777 ft | 234 kts | 199° |
| 2026-05-07 23:55 | 35.99658 | -86.83602 | 6508 ft | 233 kts | 198° |
| 2026-05-07 23:55 | 35.98102 | -86.84140 | 6235 ft | 232 kts | 197° |
| 2026-05-07 23:55 | 35.96537 | -86.84627 | 5951 ft | 232 kts | 196° |
| 2026-05-07 23:55 | 35.94971 | -86.85098 | 5653 ft | 232 kts | 195° |
| 2026-05-07 23:56 | 35.93382 | -86.85419 | 5367 ft | 233 kts | 178° |
| 2026-05-07 23:56 | 35.91867 | -86.84787 | 5098 ft | 233 kts | 143° |
| 2026-05-07 23:56 | 35.90870 | -86.83265 | 4829 ft | 229 kts | 111° |
| 2026-05-07 23:56 | 35.90338 | -86.81422 | 4505 ft | 229 kts | 106° |
| 2026-05-07 23:57 | 35.89921 | -86.79532 | 4229 ft | 226 kts | 91° |
| 2026-05-07 23:57 | 35.90241 | -86.77718 | 4082 ft | 213 kts | 56° |
| 2026-05-07 23:57 | 35.91285 | -86.76553 | 3945 ft | 200 kts | 20° |
| 2026-05-07 23:57 | 35.92594 | -86.76116 | 3833 ft | 192 kts | 9° |
| 2026-05-07 23:58 | 35.93898 | -86.75786 | 3675 ft | 195 kts | 14° |
| 2026-05-07 23:58 | 35.95198 | -86.75190 | 3544 ft | 200 kts | 21° |
| 2026-05-07 23:58 | 35.96448 | -86.74548 | 3429 ft | 184 kts | 19° |
| 2026-05-07 23:58 | 35.97577 | -86.74053 | 3368 ft | 163 kts | 15° |
| 2026-05-07 23:59 | 35.98609 | -86.73661 | 3295 ft | 146 kts | 14° |
| 2026-05-07 23:59 | 35.99556 | -86.73309 | 3178 ft | 136 kts | 13° |
| 2026-05-07 23:59 | 36.00423 | -86.73000 | 3057 ft | 127 kts | 13° |
| 2026-05-07 23:59 | 36.01267 | -86.72688 | 2878 ft | 127 kts | 15° |
| 2026-05-08 00:00 | 36.02111 | -86.72364 | 2743 ft | 128 kts | 14° |
| 2026-05-08 00:00 | 36.02961 | -86.72043 | 2579 ft | 128 kts | 12° |
| 2026-05-08 00:00 | 36.03811 | -86.71734 | 2413 ft | 127 kts | 15° |
| 2026-05-08 00:00 | 36.04652 | -86.71411 | 2277 ft | 126 kts | 14° |
| 2026-05-08 00:01 | 36.05490 | -86.71084 | 2127 ft | 127 kts | 15° |
| 2026-05-08 00:01 | 36.06338 | -86.70748 | 1944 ft | 126 kts | 15° |
| 2026-05-08 00:01 | 36.07169 | -86.70440 | 1738 ft | 124 kts | 15° |
| 2026-05-08 00:01 | 36.07991 | -86.70136 | 1536 ft | 124 kts | 15° |
| 2026-05-08 00:02 | 36.08817 | -86.69801 | 1337 ft | 125 kts | 17° |
| 2026-05-08 00:02 | 36.09644 | -86.69473 | 1107 ft | 124 kts | 14° |
| 2026-05-08 00:02 | 36.10462 | -86.69157 | 899 ft | 124 kts | 15° |
| 2026-05-08 00:02 | 36.11287 | -86.68834 | 712 ft | 124 kts | 14° |
| 2026-05-08 00:03 | 36.12098 | -86.68515 | 579 ft | 117 kts | 14° |
| 2026-05-08 00:03 | 36.12763 | -86.68261 | 575 ft | 77 kts | 17° |
| 2026-05-08 00:03 | 36.13136 | -86.68113 | 577 ft | 30 kts | 18° |
| 2026-05-08 00:03 | 36.13271 | -86.68029 | 576 ft | 21 kts | 57° |
| 2026-05-08 00:04 | 36.13320 | -86.67915 | 576 ft | 8 kts | 62° |
| 2026-05-08 00:04 | 36.13331 | -86.67888 | 577 ft | 0 kts | 64° |
| 2026-05-08 00:04 | 36.13336 | -86.67875 | 574 ft | 8 kts | 64° |
| 2026-05-08 00:05 | 36.13393 | -86.67825 | 575 ft | 11 kts | 18° |
| 2026-05-08 00:05 | 36.13472 | -86.67794 | 578 ft | 14 kts | 18° |
| 2026-05-08 00:05 | 36.13526 | -86.67725 | 574 ft | 12 kts | 98° |
| 2026-05-08 00:05 | 36.13497 | -86.67615 | 573 ft | 16 kts | 108° |
| 2026-05-08 00:06 | 36.13460 | -86.67471 | 569 ft | 19 kts | 108° |
| 2026-05-08 00:06 | 36.13435 | -86.67373 | 571 ft | 10 kts | 107° |
| 2026-05-08 00:06 | 36.13405 | -86.67325 | 571 ft | 7 kts | 153° |
| 2026-05-08 00:06 | 36.13356 | -86.67330 | 572 ft | 7 kts | 198° |
| 2026-05-08 00:07 | 36.13304 | -86.67351 | 568 ft | 10 kts | 198° |
| 2026-05-08 00:07 | 36.13228 | -86.67366 | 574 ft | 10 kts | 185° |
| 2026-05-08 00:07 | 36.13159 | -86.67374 | 573 ft | 10 kts | 185° |
| 2026-05-08 00:07 | 36.13092 | -86.67380 | 569 ft | 11 kts | 182° |
| 2026-05-08 00:08 | 36.13006 | -86.67358 | 570 ft | 13 kts | 151° |
| 2026-05-08 00:08 | 36.12936 | -86.67289 | 568 ft | 13 kts | 140° |
| 2026-05-08 00:08 | 36.12891 | -86.67254 | 572 ft | 5 kts | 154° |
| 2026-05-08 00:08 | 36.12851 | -86.67226 | 573 ft | 14 kts | 148° |
| 2026-05-08 00:09 | 36.12775 | -86.67160 | 572 ft | 10 kts | 140° |
| 2026-05-08 00:09 | 36.12720 | -86.67104 | 569 ft | 10 kts | 143° |
| 2026-05-08 00:09 | 36.12668 | -86.67124 | 573 ft | 6 kts | 223° |
| 2026-05-08 00:09 | 36.12649 | -86.67148 | 573 ft | 2 kts | 224° |